Arctic Taglu — CY8968 — position and weather

sailwx.info

Track history (hours):
 
Tides and Currents Weather Stations Pressure Air Temp Water Temp Dewpoint Dewpoint Depression Visibility Wind Speed Wind Dir Waves Ship Positions

Arctic Taglu

Last reported at 2017-Jun-04 12:35 UTC. Time now 2017-Jun-23 13:49 UTC.
Position N 52°37' W 128°28'.
Warning: this ship's position is 19 days out of date.

Length 33 m; draft 6 m.

Type: Tug. MMSI: 316003483.

Date/timePositionNaut miles runAvg speedWind from/ knotsBaromVisibWave heightAir tempDewpointWater temp
2017-Jun-04 12:35N 52°37' W 128°28'2 8.4
2017-Jun-04 12:23N 52°35' W 128°28'4 8.5
2017-Jun-04 11:56N 52°31' W 128°27'4 8.5
2017-Jun-04 11:30N 52°28' W 128°27'4 8.5
2017-Jun-04 11:00N 52°24' W 128°31'4 8.4
2017-Jun-04 10:30N 52°20' W 128°32'4 8.8
2017-Jun-04 10:00N 52°16' W 128°27'5 8.6
2017-Jun-04 09:29N 52°15' W 128°20'4 8.7
2017-Jun-04 09:00N 52°14' W 128°14'5 8.0
2017-Jun-04 08:26N 52°17' W 128°07'10 6.4
2017-Jun-04 06:53N 52°12' W 127°53'3 7.8
2017-Jun-04 06:30N 52°09' W 127°52'4 7.8
2017-Jun-04 06:00N 52°05' W 127°54'4 8.5
2017-Jun-04 05:30N 52°01' W 127°55'4 8.6
2017-Jun-04 05:00N 51°57' W 127°56'4 8.9
2017-Jun-04 04:30N 51°52' W 127°56'5 9.4
2017-Jun-04 04:00N 51°48' W 127°56'5 9.0
2017-Jun-04 03:30N 51°43' W 127°55'5 9.3
2017-Jun-04 03:00N 51°39' W 127°54'5 9.1
2017-Jun-04 02:30N 51°34' W 127°52'4 8.7
2017-Jun-04 02:00N 51°30' W 127°51'11 8.2
2017-Jun-04 00:37N 51°18' W 127°53'1 8.0
2017-Jun-04 00:30N 51°18' W 127°53'4 8.3
2017-Jun-04 00:00N 51°13' W 127°52'4 8.4
2017-Jun-03 23:30N 51°09' W 127°50'4 8.5
2017-Jun-03 23:00N 51°06' W 127°45'4 8.6
2017-Jun-03 22:30N 51°04' W 127°40'4 8.7
2017-Jun-03 22:00N 51°00' W 127°36'4 9.0
2017-Jun-03 21:30N 50°58' W 127°30'21 9.0
2017-Jun-03 19:10N 50°46' W 127°02'2 8.5
2017-Jun-03 18:57N 50°45' W 127°00'6 8.6
2017-Jun-03 18:14N 50°41' W 126°52'4 8.1
2017-Jun-03 17:44N 50°38' W 126°48'42 8.5
2017-Jun-03 12:52N 50°23' W 125°47'410.3
2017-Jun-03 12:30N 50°22' W 125°41'610.6
2017-Jun-03 11:57N 50°21' W 125°32'410.1
2017-Jun-03 11:30N 50°20' W 125°25'510.1
2017-Jun-03 11:00N 50°15' W 125°23'510.2
2017-Jun-03 10:30N 50°10' W 125°22'510.1
2017-Jun-03 10:00N 50°06' W 125°17'4 8.4
2017-Jun-03 09:30N 50°02' W 125°14'5 9.6
2017-Jun-03 08:59N 49°58' W 125°10'4 8.9
2017-Jun-03 08:30N 49°55' W 125°06'4 8.9
2017-Jun-03 08:00N 49°52' W 125°00'5 8.9
2017-Jun-03 07:30N 49°49' W 124°55'4 8.1
2017-Jun-03 07:00N 49°47' W 124°50'4 8.8
2017-Jun-03 06:30N 49°44' W 124°45'5 9.1
2017-Jun-03 06:00N 49°41' W 124°39'5 9.5
2017-Jun-03 05:30N 49°39' W 124°33'4 8.9
2017-Jun-03 05:00N 49°36' W 124°27'15 9.2
2017-Jun-03 03:22N 49°29' W 124°07'12 9.8
2017-Jun-03 02:11N 49°25' W 123°51'5 9.2
2017-Jun-03 01:41N 49°24' W 123°44'2 8.8
2017-Jun-03 01:27N 49°23' W 123°41'4 8.2
2017-Jun-03 01:00N 49°23' W 123°35'7 7.6
2017-Jun-03 00:09N 49°24' W 123°25'1 7.9
2017-Jun-02 23:58N 49°25' W 123°27'3 7.2
2017-Jun-02 23:30N 49°28' W 123°28'0 0.7
2017-Jun-02 23:00N 49°28' W 123°29'0 0.1
2017-Jun-02 22:30N 49°28' W 123°29'0 0.1
2017-Jun-02 22:00N 49°28' W 123°29'0 0.0
2017-Jun-02 21:30N 49°28' W 123°29'0 0.0
2017-Jun-02 21:00N 49°28' W 123°29'0 0.1
2017-Jun-02 20:28N 49°28' W 123°29'0 0.1
2017-Jun-02 19:58N 49°28' W 123°29'0 0.1
2017-Jun-02 19:30N 49°28' W 123°29'0 0.0
2017-Jun-02 19:00N 49°28' W 123°29'0 0.0
2017-Jun-02 18:30N 49°28' W 123°29'0 0.0
2017-Jun-02 17:58N 49°28' W 123°29'0 0.0
2017-Jun-02 17:29N 49°28' W 123°29'0 0.1
2017-Jun-02 17:00N 49°28' W 123°29'1 2.5
2017-Jun-02 16:29N 49°27' W 123°28'2 5.1
2017-Jun-02 16:00N 49°25' W 123°26'5 5.9
2017-Jun-02 15:13N 49°20' W 123°27'2 8.2
2017-Jun-02 15:00N 49°19' W 123°26'6 8.9
2017-Jun-02 14:22N 49°13' W 123°25'7 8.4
2017-Jun-02 13:29N 49°07' W 123°20'5 9.7
2017-Jun-02 12:58N 49°07' W 123°12'510.8
2017-Jun-02 12:29N 49°07' W 123°04'710.4
2017-Jun-02 11:49N 49°11' W 122°55'1 1.9
2017-Jun-02 11:04N 49°12' W 122°54'4 2.0
2017-Jun-02 08:51N 49°09' W 122°59'2 6.9
2017-Jun-02 08:30N 49°09' W 123°02'4 8.4
2017-Jun-02 08:00N 49°06' W 123°08'4 8.9
2017-Jun-02 07:30N 49°08' W 123°14'3 6.2
2017-Jun-02 07:00N 49°07' W 123°19'610.9
2017-Jun-02 06:29N 49°13' W 123°18'5 9.7
2017-Jun-02 06:00N 49°18' W 123°17'510.0
2017-Jun-02 05:30N 49°19' W 123°09'5 9.1
2017-Jun-02 05:00N 49°18' W 123°03'1 1.7
2017-Jun-02 04:25N 49°18' W 123°01'0 0.0
2017-Jun-02 03:55N 49°18' W 123°01'0 0.0
2017-Jun-02 03:25N 49°18' W 123°01'0 0.0
2017-Jun-02 02:58N 49°18' W 123°01'0 0.0
2017-Jun-02 02:28N 49°18' W 123°01'0 0.0
2017-Jun-02 01:58N 49°18' W 123°01'0 0.0
2017-Jun-02 01:25N 49°18' W 123°01'0 0.0
2017-Jun-02 00:52N 49°18' W 123°01'0 0.0
2017-Jun-02 00:22N 49°18' W 123°01'0 0.0
2017-Jun-01 23:04N 49°18' W 123°01'0 0.0
2017-Jun-01 22:04N 49°18' W 123°01'0 0.0
2017-Jun-01 21:37N 49°18' W 123°01'0 0.0
2017-Jun-01 21:13N 49°18' W 123°01'0 0.0
2017-Jun-01 20:55N 49°18' W 123°01'0 0.0
2017-Jun-01 20:28N 49°18' W 123°01'0 0.0
2017-Jun-01 19:58N 49°18' W 123°01'0 0.0
2017-Jun-01 19:16N 49°18' W 123°01'0 0.0
2017-Jun-01 18:46N 49°18' W 123°01'0 0.0
2017-Jun-01 18:13N 49°18' W 123°01'0 0.0
2017-Jun-01 17:49N 49°18' W 123°01'0 0.0
2017-Jun-01 17:28N 49°18' W 123°01'0 0.0
2017-Jun-01 16:55N 49°18' W 123°01'0 0.0
2017-Jun-01 16:28N 49°18' W 123°01'0 0.0
2017-Jun-01 15:55N 49°18' W 123°01'0 0.0
2017-Jun-01 15:25N 49°18' W 123°01'0 0.0
2017-Jun-01 14:58N 49°18' W 123°01'0 0.0
2017-Jun-01 13:55N 49°18' W 123°01'0 0.0
2017-Jun-01 13:28N 49°18' W 123°01'0 0.0
2017-Jun-01 12:58N 49°18' W 123°01'0 0.0
2017-Jun-01 12:25N 49°18' W 123°01'0 0.0
2017-Jun-01 11:58N 49°18' W 123°01'0 0.0
2017-Jun-01 11:25N 49°18' W 123°01'0 0.0
2017-Jun-01 10:58N 49°18' W 123°01'0 0.0
2017-Jun-01 10:25N 49°18' W 123°01'0 0.0
2017-Jun-01 09:55N 49°18' W 123°01'0 0.0
2017-Jun-01 09:25N 49°18' W 123°01'0 0.0
2017-Jun-01 08:58N 49°18' W 123°01'0 0.0
2017-Jun-01 08:25N 49°18' W 123°01'0 0.0
2017-Jun-01 07:58N 49°18' W 123°01'0 0.0
2017-Jun-01 07:25N 49°18' W 123°01'0 0.0
2017-Jun-01 06:55N 49°18' W 123°01'0 0.0
2017-Jun-01 06:25N 49°18' W 123°01'0 0.0
2017-Jun-01 05:55N 49°18' W 123°01'0 0.0
2017-Jun-01 05:28N 49°18' W 123°01'0 0.0
2017-Jun-01 04:58N 49°18' W 123°01'0 0.0
2017-Jun-01 04:19N 49°18' W 123°01'0 0.0
2017-Jun-01 03:49N 49°18' W 123°01'0 0.0
2017-Jun-01 03:25N 49°18' W 123°01'0 0.0
2017-Jun-01 02:46N 49°18' W 123°01'0 0.0
2017-Jun-01 02:28N 49°18' W 123°01'0 0.0
2017-Jun-01 01:52N 49°18' W 123°01'0 0.0
2017-Jun-01 01:25N 49°18' W 123°01'0 0.0
2017-Jun-01 00:46N 49°18' W 123°01'0 0.0
2017-Jun-01 00:22N 49°18' W 123°01'0 0.0
2017-May-31 23:52N 49°18' W 123°01'0 0.0
2017-May-31 23:10N 49°18' W 123°01'0 0.0
2017-May-31 22:58N 49°18' W 123°01'0 0.0
2017-May-31 22:28N 49°18' W 123°01'0 0.0
2017-May-31 21:58N 49°18' W 123°01'0 0.0
2017-May-31 21:28N 49°18' W 123°01'0 0.0
2017-May-31 20:52N 49°18' W 123°01'0 0.0
2017-May-31 20:28N 49°18' W 123°01'0 0.0
2017-May-31 19:55N 49°18' W 123°01'0 0.0
2017-May-31 19:19N 49°18' W 123°01'0 0.0
2017-May-31 18:52N 49°18' W 123°01'0 0.0
2017-May-31 18:19N 49°18' W 123°01'0 0.0
2017-May-31 17:58N 49°18' W 123°01'0 0.0
2017-May-31 17:25N 49°18' W 123°01'0 0.0
2017-May-31 16:22N 49°18' W 123°01'0 0.0
2017-May-31 15:58N 49°18' W 123°01'0 0.0
2017-May-31 15:25N 49°18' W 123°01'0 0.0
2017-May-31 14:58N 49°18' W 123°01'0 0.0
2017-May-31 13:55N 49°18' W 123°01'0 0.0
2017-May-31 13:25N 49°18' W 123°01'0 0.0
2017-May-31 12:58N 49°18' W 123°01'0 0.0
2017-May-31 12:28N 49°18' W 123°01'0 0.0
2017-May-31 11:58N 49°18' W 123°01'0 0.0
2017-May-31 11:25N 49°18' W 123°01'0 0.0
2017-May-31 10:55N 49°18' W 123°01'0 0.0
2017-May-31 10:25N 49°18' W 123°01'0 0.0
2017-May-31 09:55N 49°18' W 123°01'0 0.0
2017-May-31 09:22N 49°18' W 123°01'0 0.0
2017-May-31 08:58N 49°18' W 123°01'0 0.0
2017-May-31 08:25N 49°18' W 123°01'0 0.0
2017-May-31 07:55N 49°18' W 123°01'0 0.0
2017-May-31 07:28N 49°18' W 123°01'0 0.0
2017-May-31 06:55N 49°18' W 123°01'0 0.0
2017-May-31 06:28N 49°18' W 123°01'0 0.0
2017-May-31 05:52N 49°18' W 123°01'0 0.0
2017-May-31 05:13N 49°18' W 123°01'0 0.0
2017-May-31 04:58N 49°18' W 123°01'0 0.0
2017-May-31 04:28N 49°18' W 123°01'0 0.0
2017-May-31 03:58N 49°18' W 123°01'0 0.0
2017-May-31 03:25N 49°18' W 123°01'0 0.0
2017-May-31 02:52N 49°18' W 123°01'0 0.0
2017-May-31 02:25N 49°18' W 123°01'0 0.0
2017-May-31 01:58N 49°18' W 123°01'0 0.0
2017-May-31 01:22N 49°18' W 123°01'0 0.0
2017-May-31 00:58N 49°18' W 123°01'0 0.0
2017-May-31 00:28N 49°18' W 123°01'0 0.0
2017-May-30 23:55N 49°18' W 123°01'0 0.0
2017-May-30 23:28N 49°18' W 123°01'0 0.0
2017-May-30 22:55N 49°18' W 123°01'0 0.0
2017-May-30 22:28N 49°18' W 123°01'0 0.0
2017-May-30 21:58N 49°18' W 123°01'0 0.0
2017-May-30 21:28N 49°18' W 123°01'0 0.0
2017-May-30 20:46N 49°18' W 123°01'0 0.0
2017-May-30 20:25N 49°18' W 123°01'0 0.0
2017-May-30 19:55N 49°18' W 123°01'0 0.0
2017-May-30 19:25N 49°18' W 123°01'0 0.0
2017-May-30 18:58N 49°18' W 123°01'0 0.0
2017-May-30 18:25N 49°18' W 123°01'0 0.0
2017-May-30 17:58N 49°18' W 123°01'0 0.0
2017-May-30 17:01N 49°18' W 123°01'0 0.0
2017-May-30 16:58N 49°18' W 123°01'0 0.0
2017-May-30 16:19N 49°18' W 123°01'0 0.0
2017-May-30 15:58N 49°18' W 123°01'0 0.0
2017-May-30 15:25N 49°18' W 123°01'0 0.0
2017-May-30 14:55N 49°18' W 123°01'0 0.0
2017-May-30 13:55N 49°18' W 123°01'0 0.0
2017-May-30 13:25N 49°18' W 123°01'0 0.0
2017-May-30 12:55N 49°18' W 123°01'0 0.0
2017-May-30 12:28N 49°18' W 123°01'0 0.0
2017-May-30 11:58N 49°18' W 123°01'0 0.0
2017-May-30 11:25N 49°18' W 123°01'0 0.0
2017-May-30 10:55N 49°18' W 123°01'0 0.0
2017-May-30 10:25N 49°18' W 123°01'0 0.0
2017-May-30 09:58N 49°18' W 123°01'0 0.0
2017-May-30 09:28N 49°18' W 123°01'0 0.0
2017-May-30 08:55N 49°18' W 123°01'0 0.0
2017-May-30 08:25N 49°18' W 123°01'0 0.0
2017-May-30 07:52N 49°18' W 123°01'0 0.0
2017-May-30 07:28N 49°18' W 123°01'0 0.0
2017-May-30 06:58N 49°18' W 123°01'0 0.0
2017-May-30 06:25N 49°18' W 123°01'0 0.0
2017-May-30 05:58N 49°18' W 123°01'0 0.0
2017-May-30 05:28N 49°18' W 123°01'0 0.0
2017-May-30 04:58N 49°18' W 123°01'0 0.0
2017-May-30 04:28N 49°18' W 123°01'0 0.0
2017-May-30 03:55N 49°18' W 123°01'0 0.0
2017-May-30 03:28N 49°18' W 123°01'0 0.0
2017-May-30 02:55N 49°18' W 123°01'0 0.0
2017-May-30 02:25N 49°18' W 123°01'0 0.0
2017-May-30 01:55N 49°18' W 123°01'0 0.0
2017-May-30 01:28N 49°18' W 123°01'0 0.0
2017-May-30 00:58N 49°18' W 123°01'0 0.0
2017-May-30 00:25N 49°18' W 123°01'0 0.0
2017-May-29 23:55N 49°18' W 123°01'0 0.0
2017-May-29 23:28N 49°18' W 123°01'0 0.0
2017-May-29 22:58N 49°18' W 123°01'0 0.0
2017-May-29 22:25N 49°18' W 123°01'0 0.0
2017-May-29 21:49N 49°18' W 123°01'0 0.0
2017-May-29 21:28N 49°18' W 123°01'0 0.0
2017-May-29 20:58N 49°18' W 123°01'0 0.0
2017-May-29 20:25N 49°18' W 123°01'0 0.0
2017-May-29 19:55N 49°18' W 123°01'0 0.0
2017-May-29 19:25N 49°18' W 123°01'0 0.0
2017-May-29 18:55N 49°18' W 123°01'0 0.0
2017-May-29 18:25N 49°18' W 123°01'0 0.0
2017-May-29 17:58N 49°18' W 123°01'0 0.0
2017-May-29 17:28N 49°18' W 123°01'0 0.0
2017-May-29 16:55N 49°18' W 123°01'0 0.0
2017-May-29 16:25N 49°18' W 123°01'0 0.0
2017-May-29 15:58N 49°18' W 123°01'0 0.0
2017-May-29 15:28N 49°18' W 123°01'0 0.0
2017-May-29 14:55N 49°18' W 123°01'0 0.0
2017-May-29 13:58N 49°18' W 123°01'0 0.0
2017-May-29 13:28N 49°18' W 123°01'0 0.0
2017-May-29 12:55N 49°18' W 123°01'0 0.0
2017-May-29 12:28N 49°18' W 123°01'0 0.0
2017-May-29 11:58N 49°18' W 123°01'0 0.0
2017-May-29 11:28N 49°18' W 123°01'0 0.0
2017-May-29 10:55N 49°18' W 123°01'0 0.0
2017-May-29 10:25N 49°18' W 123°01'0 0.0
2017-May-29 09:55N 49°18' W 123°01'0 0.0
2017-May-29 09:28N 49°18' W 123°01'0 0.0
2017-May-29 08:58N 49°18' W 123°01'0 0.0
2017-May-29 08:25N 49°18' W 123°01'0 0.0
2017-May-29 07:55N 49°18' W 123°01'0 0.0
2017-May-29 07:25N 49°18' W 123°01'0 0.0
2017-May-29 06:58N 49°18' W 123°01'0 0.0
2017-May-29 06:28N 49°18' W 123°01'0 0.0
2017-May-29 05:58N 49°18' W 123°01'0 0.0
2017-May-29 05:28N 49°18' W 123°01'0 0.0
2017-May-29 04:52N 49°18' W 123°01'0 0.0
2017-May-29 04:28N 49°18' W 123°01'0 0.0
2017-May-29 03:55N 49°18' W 123°01'0 0.0
2017-May-29 03:25N 49°18' W 123°01'0 0.0
2017-May-29 02:58N 49°18' W 123°01'0 0.0
2017-May-29 02:13N 49°18' W 123°01'0 0.0
2017-May-29 01:46N 49°18' W 123°01'0 0.0
2017-May-29 01:22N 49°18' W 123°01'0 0.0
2017-May-29 00:58N 49°18' W 123°01'0 0.0
2017-May-29 00:25N 49°18' W 123°01'0 0.0
2017-May-28 23:37N 49°18' W 123°01'0 0.0
2017-May-28 23:28N 49°18' W 123°01'0 0.0
2017-May-28 22:07N 49°18' W 123°01'0 0.0
2017-May-28 21:49N 49°18' W 123°01'0 0.0
2017-May-28 21:19N 49°18' W 123°01'0 0.0
2017-May-28 20:43N 49°18' W 123°01'0 0.0
2017-May-28 20:28N 49°18' W 123°01'0 0.0
2017-May-28 19:52N 49°18' W 123°01'0 0.0
2017-May-28 19:28N 49°18' W 123°01'0 0.0
2017-May-28 18:55N 49°18' W 123°01'0 0.0
2017-May-28 18:28N 49°18' W 123°01'0 0.0
2017-May-28 17:55N 49°18' W 123°01'0 0.0
2017-May-28 17:28N 49°18' W 123°01'0 0.0
2017-May-28 16:55N 49°18' W 123°01'0 0.0
2017-May-28 16:22N 49°18' W 123°01'0 0.0
2017-May-28 15:58N 49°18' W 123°01'0 0.0
2017-May-28 15:25N 49°18' W 123°01'0 0.0
2017-May-28 14:55N 49°18' W 123°01'0 0.0
2017-May-28 13:58N 49°18' W 123°01'0 0.0
2017-May-28 13:28N 49°18' W 123°01'0 0.0
2017-May-28 12:58N 49°18' W 123°01'0 0.0
2017-May-28 12:25N 49°18' W 123°01'0 0.0
2017-May-28 11:55N 49°18' W 123°01'0 0.0
2017-May-28 11:25N 49°18' W 123°01'0 0.0
2017-May-28 10:55N 49°18' W 123°01'0 0.0
2017-May-28 10:25N 49°18' W 123°01'0 0.0
2017-May-28 09:55N 49°18' W 123°01'0 0.0
2017-May-28 09:25N 49°18' W 123°01'0 0.0
2017-May-28 08:55N 49°18' W 123°01'0 0.0
2017-May-28 08:28N 49°18' W 123°01'0 0.0
2017-May-28 07:55N 49°18' W 123°01'0 0.0
2017-May-28 07:25N 49°18' W 123°01'0 0.0
2017-May-28 06:58N 49°18' W 123°01'0 0.0
2017-May-28 06:28N 49°18' W 123°01'0 0.0
2017-May-28 05:58N 49°18' W 123°01'0 0.0
2017-May-28 05:28N 49°18' W 123°01'0 0.0
2017-May-28 04:55N 49°18' W 123°01'0 0.0
2017-May-28 04:28N 49°18' W 123°01'0 0.0
2017-May-28 03:49N 49°18' W 123°01'0 0.0
2017-May-28 03:25N 49°18' W 123°01'0 0.0
2017-May-28 02:58N 49°18' W 123°01'0 0.0
2017-May-28 02:25N 49°18' W 123°01'0 0.0
2017-May-28 01:58N 49°18' W 123°01'0 0.0
2017-May-28 01:19N 49°18' W 123°01'0 0.0
2017-May-28 00:55N 49°18' W 123°01'0 0.0
2017-May-28 00:16N 49°18' W 123°01'0 0.0
2017-May-27 23:52N 49°18' W 123°01'0 0.0
2017-May-27 23:16N 49°18' W 123°01'0 0.0
2017-May-27 22:55N 49°18' W 123°01'0 0.0
2017-May-27 21:37N 49°18' W 123°01'0 0.0
2017-May-27 21:13N 49°18' W 123°01'0 0.0
2017-May-27 20:49N 49°18' W 123°01'0 0.0
2017-May-27 20:25N 49°18' W 123°01'0 0.0
2017-May-27 19:43N 49°18' W 123°01'0 0.0
2017-May-27 19:22N 49°18' W 123°01'0 0.0
2017-May-27 18:49N 49°18' W 123°01'0 0.0
2017-May-27 18:22N 49°18' W 123°01'0 0.0
2017-May-27 17:52N 49°18' W 123°01'0 0.0
2017-May-27 17:25N 49°18' W 123°01'0 0.0
2017-May-27 16:55N 49°18' W 123°01'0 0.0
2017-May-27 16:25N 49°18' W 123°01'0 0.0
2017-May-27 15:55N 49°18' W 123°01'0 0.0
2017-May-27 15:25N 49°18' W 123°01'0 0.0
2017-May-27 14:55N 49°18' W 123°01'0 0.0
2017-May-27 13:58N 49°18' W 123°01'0 0.0
2017-May-27 13:28N 49°18' W 123°01'0 0.0
2017-May-27 12:58N 49°18' W 123°01'0 0.0
2017-May-27 12:28N 49°18' W 123°01'0 0.0
2017-May-27 11:58N 49°18' W 123°01'0 0.0
2017-May-27 11:28N 49°18' W 123°01'0 0.0
2017-May-27 10:58N 49°18' W 123°01'0 0.0
2017-May-27 10:25N 49°18' W 123°01'0 0.0
2017-May-27 09:55N 49°18' W 123°01'0 0.0
2017-May-27 09:28N 49°18' W 123°01'0 0.0
2017-May-27 08:58N 49°18' W 123°01'0 0.0
2017-May-27 08:28N 49°18' W 123°01'0 0.0
2017-May-27 07:58N 49°18' W 123°01'0 0.0
2017-May-27 07:25N 49°18' W 123°01'0 0.0
2017-May-27 06:55N 49°18' W 123°01'0 0.0
2017-May-27 06:28N 49°18' W 123°01'0 0.0
2017-May-27 05:43N 49°18' W 123°01'0 0.0
2017-May-27 05:28N 49°18' W 123°01'0 0.0
2017-May-27 04:58N 49°18' W 123°01'0 0.0
2017-May-27 04:28N 49°18' W 123°01'0 0.0
2017-May-27 03:55N 49°18' W 123°01'0 0.0
2017-May-27 03:22N 49°18' W 123°01'0 0.0
2017-May-27 02:58N 49°18' W 123°01'0 0.0
2017-May-27 02:25N 49°18' W 123°01'0 0.0
2017-May-27 01:55N 49°18' W 123°01'0 0.0
2017-May-27 01:25N 49°18' W 123°01'0 0.0
2017-May-27 00:49N 49°18' W 123°01'0 0.0
2017-May-27 00:28N 49°18' W 123°01'0 0.0
2017-May-26 23:55N 49°18' W 123°01'0 0.0
2017-May-26 23:28N 49°18' W 123°01'0 0.0
2017-May-26 22:46N 49°18' W 123°01'0 0.0
2017-May-26 22:16N 49°18' W 123°01'0 0.0
2017-May-26 21:13N 49°18' W 123°01'0 0.0
2017-May-26 20:55N 49°18' W 123°01'0 0.0
2017-May-26 20:13N 49°18' W 123°01'0 0.0
2017-May-26 19:52N 49°18' W 123°01'0 0.0
2017-May-26 19:25N 49°18' W 123°01'0 0.0
2017-May-26 18:55N 49°18' W 123°01'0 0.0
2017-May-26 18:25N 49°18' W 123°01'0 0.0
2017-May-26 17:55N 49°18' W 123°01'0 0.0
2017-May-26 17:25N 49°18' W 123°01'0 0.0
2017-May-26 16:55N 49°18' W 123°01'0 0.0
2017-May-26 16:25N 49°18' W 123°01'0 0.0
2017-May-26 15:52N 49°18' W 123°01'0 0.0
2017-May-26 15:25N 49°18' W 123°01'0 0.1
2017-May-26 14:52N 49°18' W 123°01'0 1.1
2017-May-26 14:30N 49°18' W 123°02'3 3.2
2017-May-26 13:30N 49°18' W 123°06'2 4.1
2017-May-26 13:00N 49°19' W 123°09'2 4.3
2017-May-26 12:30N 49°18' W 123°12'2 4.1
2017-May-26 12:00N 49°18' W 123°15'2 3.8
2017-May-26 11:30N 49°16' W 123°17'2 5.0
2017-May-26 11:00N 49°14' W 123°18'3 5.1
2017-May-26 10:30N 49°11' W 123°19'2 4.9
2017-May-26 10:00N 49°09' W 123°19'2 4.9
2017-May-26 09:30N 49°06' W 123°19'2 5.0
2017-May-26 09:00N 49°07' W 123°15'3 5.5
2017-May-26 08:30N 49°07' W 123°11'3 6.2
2017-May-26 08:00N 49°07' W 123°07'3 6.1
2017-May-26 07:30N 49°09' W 123°03'3 6.5
2017-May-26 07:00N 49°09' W 122°58'3 6.1
2017-May-26 06:30N 49°12' W 122°55'2 3.0
2017-May-26 05:58N 49°13' W 122°53'0 0.7
2017-May-26 05:28N 49°12' W 122°53'0 0.0
2017-May-26 04:58N 49°12' W 122°53'0 0.0
2017-May-26 04:28N 49°12' W 122°53'0 0.0
2017-May-26 03:58N 49°12' W 122°53'0 0.0
2017-May-26 03:28N 49°12' W 122°53'0 0.0
2017-May-26 02:58N 49°12' W 122°53'0 0.0
2017-May-26 02:28N 49°12' W 122°53'0 0.0
2017-May-26 01:58N 49°12' W 122°53'0 0.0
2017-May-26 01:28N 49°12' W 122°53'0 0.0
2017-May-26 00:58N 49°12' W 122°53'0 0.0
2017-May-26 00:28N 49°12' W 122°53'0 0.0
2017-May-25 23:58N 49°12' W 122°53'0 0.0
2017-May-25 23:22N 49°12' W 122°53'0 0.0
2017-May-25 22:58N 49°12' W 122°53'0 0.0
2017-May-25 22:28N 49°12' W 122°53'0 0.0
2017-May-25 21:58N 49°12' W 122°53'0 0.0
2017-May-25 20:49N 49°12' W 122°53'0 0.0
2017-May-25 20:28N 49°12' W 122°53'0 0.0
2017-May-25 19:58N 49°12' W 122°53'0 0.0
2017-May-25 19:28N 49°12' W 122°53'0 0.0
2017-May-25 18:58N 49°12' W 122°53'0 0.0
2017-May-25 18:28N 49°12' W 122°53'0 0.0
2017-May-25 17:52N 49°12' W 122°53'0 0.0
2017-May-25 17:13N 49°12' W 122°53'0 0.1
2017-May-25 13:10N 49°13' W 122°53'0 0.0
2017-May-25 12:58N 49°13' W 122°53'  
Track history (hours):
 
Tides and Currents Weather Stations Pressure Air Temp Water Temp Dewpoint Dewpoint Depression Visibility Wind Speed Wind Dir Waves Ship Positions

Arctic Taglu

Last reported at 2017-Jun-04 12:35 UTC. Time now 2017-Jun-23 13:49 UTC.
Position N 52°37' W 128°28'.
Warning: this ship's position is 19 days out of date.

Length 33 m; draft 6 m.

Type: Tug. MMSI: 316003483.

Date/timePositionNaut miles runAvg speedWind from/ knotsBaromVisibWave heightAir tempDewpointWater temp
2017-Jun-04 12:35N 52°37' W 128°28'2 8.4
2017-Jun-04 12:23N 52°35' W 128°28'4 8.5
2017-Jun-04 11:56N 52°31' W 128°27'4 8.5
2017-Jun-04 11:30N 52°28' W 128°27'4 8.5
2017-Jun-04 11:00N 52°24' W 128°31'4 8.4
2017-Jun-04 10:30N 52°20' W 128°32'4 8.8
2017-Jun-04 10:00N 52°16' W 128°27'5 8.6
2017-Jun-04 09:29N 52°15' W 128°20'4 8.7
2017-Jun-04 09:00N 52°14' W 128°14'5 8.0
2017-Jun-04 08:26N 52°17' W 128°07'10 6.4
2017-Jun-04 06:53N 52°12' W 127°53'3 7.8
2017-Jun-04 06:30N 52°09' W 127°52'4 7.8
2017-Jun-04 06:00N 52°05' W 127°54'4 8.5
2017-Jun-04 05:30N 52°01' W 127°55'4 8.6
2017-Jun-04 05:00N 51°57' W 127°56'4 8.9
2017-Jun-04 04:30N 51°52' W 127°56'5 9.4
2017-Jun-04 04:00N 51°48' W 127°56'5 9.0
2017-Jun-04 03:30N 51°43' W 127°55'5 9.3
2017-Jun-04 03:00N 51°39' W 127°54'5 9.1
2017-Jun-04 02:30N 51°34' W 127°52'4 8.7
2017-Jun-04 02:00N 51°30' W 127°51'11 8.2
2017-Jun-04 00:37N 51°18' W 127°53'1 8.0
2017-Jun-04 00:30N 51°18' W 127°53'4 8.3
2017-Jun-04 00:00N 51°13' W 127°52'4 8.4
2017-Jun-03 23:30N 51°09' W 127°50'4 8.5
2017-Jun-03 23:00N 51°06' W 127°45'4 8.6
2017-Jun-03 22:30N 51°04' W 127°40'4 8.7
2017-Jun-03 22:00N 51°00' W 127°36'4 9.0
2017-Jun-03 21:30N 50°58' W 127°30'21 9.0
2017-Jun-03 19:10N 50°46' W 127°02'2 8.5
2017-Jun-03 18:57N 50°45' W 127°00'6 8.6
2017-Jun-03 18:14N 50°41' W 126°52'4 8.1
2017-Jun-03 17:44N 50°38' W 126°48'42 8.5
2017-Jun-03 12:52N 50°23' W 125°47'410.3
2017-Jun-03 12:30N 50°22' W 125°41'610.6
2017-Jun-03 11:57N 50°21' W 125°32'410.1
2017-Jun-03 11:30N 50°20' W 125°25'510.1
2017-Jun-03 11:00N 50°15' W 125°23'510.2
2017-Jun-03 10:30N 50°10' W 125°22'510.1
2017-Jun-03 10:00N 50°06' W 125°17'4 8.4
2017-Jun-03 09:30N 50°02' W 125°14'5 9.6
2017-Jun-03 08:59N 49°58' W 125°10'4 8.9
2017-Jun-03 08:30N 49°55' W 125°06'4 8.9
2017-Jun-03 08:00N 49°52' W 125°00'5 8.9
2017-Jun-03 07:30N 49°49' W 124°55'4 8.1
2017-Jun-03 07:00N 49°47' W 124°50'4 8.8
2017-Jun-03 06:30N 49°44' W 124°45'5 9.1
2017-Jun-03 06:00N 49°41' W 124°39'5 9.5
2017-Jun-03 05:30N 49°39' W 124°33'4 8.9
2017-Jun-03 05:00N 49°36' W 124°27'15 9.2
2017-Jun-03 03:22N 49°29' W 124°07'12 9.8
2017-Jun-03 02:11N 49°25' W 123°51'5 9.2
2017-Jun-03 01:41N 49°24' W 123°44'2 8.8
2017-Jun-03 01:27N 49°23' W 123°41'4 8.2
2017-Jun-03 01:00N 49°23' W 123°35'7 7.6
2017-Jun-03 00:09N 49°24' W 123°25'1 7.9
2017-Jun-02 23:58N 49°25' W 123°27'3 7.2
2017-Jun-02 23:30N 49°28' W 123°28'0 0.7
2017-Jun-02 23:00N 49°28' W 123°29'0 0.1
2017-Jun-02 22:30N 49°28' W 123°29'0 0.1
2017-Jun-02 22:00N 49°28' W 123°29'0 0.0
2017-Jun-02 21:30N 49°28' W 123°29'0 0.0
2017-Jun-02 21:00N 49°28' W 123°29'0 0.1
2017-Jun-02 20:28N 49°28' W 123°29'0 0.1
2017-Jun-02 19:58N 49°28' W 123°29'0 0.1
2017-Jun-02 19:30N 49°28' W 123°29'0 0.0
2017-Jun-02 19:00N 49°28' W 123°29'0 0.0
2017-Jun-02 18:30N 49°28' W 123°29'0 0.0
2017-Jun-02 17:58N 49°28' W 123°29'0 0.0
2017-Jun-02 17:29N 49°28' W 123°29'0 0.1
2017-Jun-02 17:00N 49°28' W 123°29'1 2.5
2017-Jun-02 16:29N 49°27' W 123°28'2 5.1
2017-Jun-02 16:00N 49°25' W 123°26'5 5.9
2017-Jun-02 15:13N 49°20' W 123°27'2 8.2
2017-Jun-02 15:00N 49°19' W 123°26'6 8.9
2017-Jun-02 14:22N 49°13' W 123°25'7 8.4
2017-Jun-02 13:29N 49°07' W 123°20'5 9.7
2017-Jun-02 12:58N 49°07' W 123°12'510.8
2017-Jun-02 12:29N 49°07' W 123°04'710.4
2017-Jun-02 11:49N 49°11' W 122°55'1 1.9
2017-Jun-02 11:04N 49°12' W 122°54'4 2.0
2017-Jun-02 08:51N 49°09' W 122°59'2 6.9
2017-Jun-02 08:30N 49°09' W 123°02'4 8.4
2017-Jun-02 08:00N 49°06' W 123°08'4 8.9
2017-Jun-02 07:30N 49°08' W 123°14'3 6.2
2017-Jun-02 07:00N 49°07' W 123°19'610.9
2017-Jun-02 06:29N 49°13' W 123°18'5 9.7
2017-Jun-02 06:00N 49°18' W 123°17'510.0
2017-Jun-02 05:30N 49°19' W 123°09'5 9.1
2017-Jun-02 05:00N 49°18' W 123°03'1 1.7
2017-Jun-02 04:25N 49°18' W 123°01'0 0.0
2017-Jun-02 03:55N 49°18' W 123°01'0 0.0
2017-Jun-02 03:25N 49°18' W 123°01'0 0.0
2017-Jun-02 02:58N 49°18' W 123°01'0 0.0
2017-Jun-02 02:28N 49°18' W 123°01'0 0.0
2017-Jun-02 01:58N 49°18' W 123°01'0 0.0
2017-Jun-02 01:25N 49°18' W 123°01'0 0.0
2017-Jun-02 00:52N 49°18' W 123°01'0 0.0
2017-Jun-02 00:22N 49°18' W 123°01'0 0.0
2017-Jun-01 23:04N 49°18' W 123°01'0 0.0
2017-Jun-01 22:04N 49°18' W 123°01'0 0.0
2017-Jun-01 21:37N 49°18' W 123°01'0 0.0
2017-Jun-01 21:13N 49°18' W 123°01'0 0.0
2017-Jun-01 20:55N 49°18' W 123°01'0 0.0
2017-Jun-01 20:28N 49°18' W 123°01'0 0.0
2017-Jun-01 19:58N 49°18' W 123°01'0 0.0
2017-Jun-01 19:16N 49°18' W 123°01'0 0.0
2017-Jun-01 18:46N 49°18' W 123°01'0 0.0
2017-Jun-01 18:13N 49°18' W 123°01'0 0.0
2017-Jun-01 17:49N 49°18' W 123°01'0 0.0
2017-Jun-01 17:28N 49°18' W 123°01'0 0.0
2017-Jun-01 16:55N 49°18' W 123°01'0 0.0
2017-Jun-01 16:28N 49°18' W 123°01'0 0.0
2017-Jun-01 15:55N 49°18' W 123°01'0 0.0
2017-Jun-01 15:25N 49°18' W 123°01'0 0.0
2017-Jun-01 14:58N 49°18' W 123°01'0 0.0
2017-Jun-01 13:55N 49°18' W 123°01'0 0.0
2017-Jun-01 13:28N 49°18' W 123°01'0 0.0
2017-Jun-01 12:58N 49°18' W 123°01'0 0.0
2017-Jun-01 12:25N 49°18' W 123°01'0 0.0
2017-Jun-01 11:58N 49°18' W 123°01'0 0.0
2017-Jun-01 11:25N 49°18' W 123°01'0 0.0
2017-Jun-01 10:58N 49°18' W 123°01'0 0.0
2017-Jun-01 10:25N 49°18' W 123°01'0 0.0
2017-Jun-01 09:55N 49°18' W 123°01'0 0.0
2017-Jun-01 09:25N 49°18' W 123°01'0 0.0
2017-Jun-01 08:58N 49°18' W 123°01'0 0.0
2017-Jun-01 08:25N 49°18' W 123°01'0 0.0
2017-Jun-01 07:58N 49°18' W 123°01'0 0.0
2017-Jun-01 07:25N 49°18' W 123°01'0 0.0
2017-Jun-01 06:55N 49°18' W 123°01'0 0.0
2017-Jun-01 06:25N 49°18' W 123°01'0 0.0
2017-Jun-01 05:55N 49°18' W 123°01'0 0.0
2017-Jun-01 05:28N 49°18' W 123°01'0 0.0
2017-Jun-01 04:58N 49°18' W 123°01'0 0.0
2017-Jun-01 04:19N 49°18' W 123°01'0 0.0
2017-Jun-01 03:49N 49°18' W 123°01'0 0.0
2017-Jun-01 03:25N 49°18' W 123°01'0 0.0
2017-Jun-01 02:46N 49°18' W 123°01'0 0.0
2017-Jun-01 02:28N 49°18' W 123°01'0 0.0
2017-Jun-01 01:52N 49°18' W 123°01'0 0.0
2017-Jun-01 01:25N 49°18' W 123°01'0 0.0
2017-Jun-01 00:46N 49°18' W 123°01'0 0.0
2017-Jun-01 00:22N 49°18' W 123°01'0 0.0
2017-May-31 23:52N 49°18' W 123°01'0 0.0
2017-May-31 23:10N 49°18' W 123°01'0 0.0
2017-May-31 22:58N 49°18' W 123°01'0 0.0
2017-May-31 22:28N 49°18' W 123°01'0 0.0
2017-May-31 21:58N 49°18' W 123°01'0 0.0
2017-May-31 21:28N 49°18' W 123°01'0 0.0
2017-May-31 20:52N 49°18' W 123°01'0 0.0
2017-May-31 20:28N 49°18' W 123°01'0 0.0
2017-May-31 19:55N 49°18' W 123°01'0 0.0
2017-May-31 19:19N 49°18' W 123°01'0 0.0
2017-May-31 18:52N 49°18' W 123°01'0 0.0
2017-May-31 18:19N 49°18' W 123°01'0 0.0
2017-May-31 17:58N 49°18' W 123°01'0 0.0
2017-May-31 17:25N 49°18' W 123°01'0 0.0
2017-May-31 16:22N 49°18' W 123°01'0 0.0
2017-May-31 15:58N 49°18' W 123°01'0 0.0
2017-May-31 15:25N 49°18' W 123°01'0 0.0
2017-May-31 14:58N 49°18' W 123°01'0 0.0
2017-May-31 13:55N 49°18' W 123°01'0 0.0
2017-May-31 13:25N 49°18' W 123°01'0 0.0
2017-May-31 12:58N 49°18' W 123°01'0 0.0
2017-May-31 12:28N 49°18' W 123°01'0 0.0
2017-May-31 11:58N 49°18' W 123°01'0 0.0
2017-May-31 11:25N 49°18' W 123°01'0 0.0
2017-May-31 10:55N 49°18' W 123°01'0 0.0
2017-May-31 10:25N 49°18' W 123°01'0 0.0
2017-May-31 09:55N 49°18' W 123°01'0 0.0
2017-May-31 09:22N 49°18' W 123°01'0 0.0
2017-May-31 08:58N 49°18' W 123°01'0 0.0
2017-May-31 08:25N 49°18' W 123°01'0 0.0
2017-May-31 07:55N 49°18' W 123°01'0 0.0
2017-May-31 07:28N 49°18' W 123°01'0 0.0
2017-May-31 06:55N 49°18' W 123°01'0 0.0
2017-May-31 06:28N 49°18' W 123°01'0 0.0
2017-May-31 05:52N 49°18' W 123°01'0 0.0
2017-May-31 05:13N 49°18' W 123°01'0 0.0
2017-May-31 04:58N 49°18' W 123°01'0 0.0
2017-May-31 04:28N 49°18' W 123°01'0 0.0
2017-May-31 03:58N 49°18' W 123°01'0 0.0
2017-May-31 03:25N 49°18' W 123°01'0 0.0
2017-May-31 02:52N 49°18' W 123°01'0 0.0
2017-May-31 02:25N 49°18' W 123°01'0 0.0
2017-May-31 01:58N 49°18' W 123°01'0 0.0
2017-May-31 01:22N 49°18' W 123°01'0 0.0
2017-May-31 00:58N 49°18' W 123°01'0 0.0
2017-May-31 00:28N 49°18' W 123°01'0 0.0
2017-May-30 23:55N 49°18' W 123°01'0 0.0
2017-May-30 23:28N 49°18' W 123°01'0 0.0
2017-May-30 22:55N 49°18' W 123°01'0 0.0
2017-May-30 22:28N 49°18' W 123°01'0 0.0
2017-May-30 21:58N 49°18' W 123°01'0 0.0
2017-May-30 21:28N 49°18' W 123°01'0 0.0
2017-May-30 20:46N 49°18' W 123°01'0 0.0
2017-May-30 20:25N 49°18' W 123°01'0 0.0
2017-May-30 19:55N 49°18' W 123°01'0 0.0
2017-May-30 19:25N 49°18' W 123°01'0 0.0
2017-May-30 18:58N 49°18' W 123°01'0 0.0
2017-May-30 18:25N 49°18' W 123°01'0 0.0
2017-May-30 17:58N 49°18' W 123°01'0 0.0
2017-May-30 17:01N 49°18' W 123°01'0 0.0
2017-May-30 16:58N 49°18' W 123°01'0 0.0
2017-May-30 16:19N 49°18' W 123°01'0 0.0
2017-May-30 15:58N 49°18' W 123°01'0 0.0
2017-May-30 15:25N 49°18' W 123°01'0 0.0
2017-May-30 14:55N 49°18' W 123°01'0 0.0
2017-May-30 13:55N 49°18' W 123°01'0 0.0
2017-May-30 13:25N 49°18' W 123°01'0 0.0
2017-May-30 12:55N 49°18' W 123°01'0 0.0
2017-May-30 12:28N 49°18' W 123°01'0 0.0
2017-May-30 11:58N 49°18' W 123°01'0 0.0
2017-May-30 11:25N 49°18' W 123°01'0 0.0
2017-May-30 10:55N 49°18' W 123°01'0 0.0
2017-May-30 10:25N 49°18' W 123°01'0 0.0
2017-May-30 09:58N 49°18' W 123°01'0 0.0
2017-May-30 09:28N 49°18' W 123°01'0 0.0
2017-May-30 08:55N 49°18' W 123°01'0 0.0
2017-May-30 08:25N 49°18' W 123°01'0 0.0
2017-May-30 07:52N 49°18' W 123°01'0 0.0
2017-May-30 07:28N 49°18' W 123°01'0 0.0
2017-May-30 06:58N 49°18' W 123°01'0 0.0
2017-May-30 06:25N 49°18' W 123°01'0 0.0
2017-May-30 05:58N 49°18' W 123°01'0 0.0
2017-May-30 05:28N 49°18' W 123°01'0 0.0
2017-May-30 04:58N 49°18' W 123°01'0 0.0
2017-May-30 04:28N 49°18' W 123°01'0 0.0
2017-May-30 03:55N 49°18' W 123°01'0 0.0
2017-May-30 03:28N 49°18' W 123°01'0 0.0
2017-May-30 02:55N 49°18' W 123°01'0 0.0
2017-May-30 02:25N 49°18' W 123°01'0 0.0
2017-May-30 01:55N 49°18' W 123°01'0 0.0
2017-May-30 01:28N 49°18' W 123°01'0 0.0
2017-May-30 00:58N 49°18' W 123°01'0 0.0
2017-May-30 00:25N 49°18' W 123°01'0 0.0
2017-May-29 23:55N 49°18' W 123°01'0 0.0
2017-May-29 23:28N 49°18' W 123°01'0 0.0
2017-May-29 22:58N 49°18' W 123°01'0 0.0
2017-May-29 22:25N 49°18' W 123°01'0 0.0
2017-May-29 21:49N 49°18' W 123°01'0 0.0
2017-May-29 21:28N 49°18' W 123°01'0 0.0
2017-May-29 20:58N 49°18' W 123°01'0 0.0
2017-May-29 20:25N 49°18' W 123°01'0 0.0
2017-May-29 19:55N 49°18' W 123°01'0 0.0
2017-May-29 19:25N 49°18' W 123°01'0 0.0
2017-May-29 18:55N 49°18' W 123°01'0 0.0
2017-May-29 18:25N 49°18' W 123°01'0 0.0
2017-May-29 17:58N 49°18' W 123°01'0 0.0
2017-May-29 17:28N 49°18' W 123°01'0 0.0
2017-May-29 16:55N 49°18' W 123°01'0 0.0
2017-May-29 16:25N 49°18' W 123°01'0 0.0
2017-May-29 15:58N 49°18' W 123°01'0 0.0
2017-May-29 15:28N 49°18' W 123°01'0 0.0
2017-May-29 14:55N 49°18' W 123°01'0 0.0
2017-May-29 13:58N 49°18' W 123°01'0 0.0
2017-May-29 13:28N 49°18' W 123°01'0 0.0
2017-May-29 12:55N 49°18' W 123°01'0 0.0
2017-May-29 12:28N 49°18' W 123°01'0 0.0
2017-May-29 11:58N 49°18' W 123°01'0 0.0
2017-May-29 11:28N 49°18' W 123°01'0 0.0
2017-May-29 10:55N 49°18' W 123°01'0 0.0
2017-May-29 10:25N 49°18' W 123°01'0 0.0
2017-May-29 09:55N 49°18' W 123°01'0 0.0
2017-May-29 09:28N 49°18' W 123°01'0 0.0
2017-May-29 08:58N 49°18' W 123°01'0 0.0
2017-May-29 08:25N 49°18' W 123°01'0 0.0
2017-May-29 07:55N 49°18' W 123°01'0 0.0
2017-May-29 07:25N 49°18' W 123°01'0 0.0
2017-May-29 06:58N 49°18' W 123°01'0 0.0
2017-May-29 06:28N 49°18' W 123°01'0 0.0
2017-May-29 05:58N 49°18' W 123°01'0 0.0
2017-May-29 05:28N 49°18' W 123°01'0 0.0
2017-May-29 04:52N 49°18' W 123°01'0 0.0
2017-May-29 04:28N 49°18' W 123°01'0 0.0
2017-May-29 03:55N 49°18' W 123°01'0 0.0
2017-May-29 03:25N 49°18' W 123°01'0 0.0
2017-May-29 02:58N 49°18' W 123°01'0 0.0
2017-May-29 02:13N 49°18' W 123°01'0 0.0
2017-May-29 01:46N 49°18' W 123°01'0 0.0
2017-May-29 01:22N 49°18' W 123°01'0 0.0
2017-May-29 00:58N 49°18' W 123°01'0 0.0
2017-May-29 00:25N 49°18' W 123°01'0 0.0
2017-May-28 23:37N 49°18' W 123°01'0 0.0
2017-May-28 23:28N 49°18' W 123°01'0 0.0
2017-May-28 22:07N 49°18' W 123°01'0 0.0
2017-May-28 21:49N 49°18' W 123°01'0 0.0
2017-May-28 21:19N 49°18' W 123°01'0 0.0
2017-May-28 20:43N 49°18' W 123°01'0 0.0
2017-May-28 20:28N 49°18' W 123°01'0 0.0
2017-May-28 19:52N 49°18' W 123°01'0 0.0
2017-May-28 19:28N 49°18' W 123°01'0 0.0
2017-May-28 18:55N 49°18' W 123°01'0 0.0
2017-May-28 18:28N 49°18' W 123°01'0 0.0
2017-May-28 17:55N 49°18' W 123°01'0 0.0
2017-May-28 17:28N 49°18' W 123°01'0 0.0
2017-May-28 16:55N 49°18' W 123°01'0 0.0
2017-May-28 16:22N 49°18' W 123°01'0 0.0
2017-May-28 15:58N 49°18' W 123°01'0 0.0
2017-May-28 15:25N 49°18' W 123°01'0 0.0
2017-May-28 14:55N 49°18' W 123°01'0 0.0
2017-May-28 13:58N 49°18' W 123°01'0 0.0
2017-May-28 13:28N 49°18' W 123°01'0 0.0
2017-May-28 12:58N 49°18' W 123°01'0 0.0
2017-May-28 12:25N 49°18' W 123°01'0 0.0
2017-May-28 11:55N 49°18' W 123°01'0 0.0
2017-May-28 11:25N 49°18' W 123°01'0 0.0
2017-May-28 10:55N 49°18' W 123°01'0 0.0
2017-May-28 10:25N 49°18' W 123°01'0 0.0
2017-May-28 09:55N 49°18' W 123°01'0 0.0
2017-May-28 09:25N 49°18' W 123°01'0 0.0
2017-May-28 08:55N 49°18' W 123°01'0 0.0
2017-May-28 08:28N 49°18' W 123°01'0 0.0
2017-May-28 07:55N 49°18' W 123°01'0 0.0
2017-May-28 07:25N 49°18' W 123°01'0 0.0
2017-May-28 06:58N 49°18' W 123°01'0 0.0
2017-May-28 06:28N 49°18' W 123°01'0 0.0
2017-May-28 05:58N 49°18' W 123°01'0 0.0
2017-May-28 05:28N 49°18' W 123°01'0 0.0
2017-May-28 04:55N 49°18' W 123°01'0 0.0
2017-May-28 04:28N 49°18' W 123°01'0 0.0
2017-May-28 03:49N 49°18' W 123°01'0 0.0
2017-May-28 03:25N 49°18' W 123°01'0 0.0
2017-May-28 02:58N 49°18' W 123°01'0 0.0
2017-May-28 02:25N 49°18' W 123°01'0 0.0
2017-May-28 01:58N 49°18' W 123°01'0 0.0
2017-May-28 01:19N 49°18' W 123°01'0 0.0
2017-May-28 00:55N 49°18' W 123°01'0 0.0
2017-May-28 00:16N 49°18' W 123°01'0 0.0
2017-May-27 23:52N 49°18' W 123°01'0 0.0
2017-May-27 23:16N 49°18' W 123°01'0 0.0
2017-May-27 22:55N 49°18' W 123°01'0 0.0
2017-May-27 21:37N 49°18' W 123°01'0 0.0
2017-May-27 21:13N 49°18' W 123°01'0 0.0
2017-May-27 20:49N 49°18' W 123°01'0 0.0
2017-May-27 20:25N 49°18' W 123°01'0 0.0
2017-May-27 19:43N 49°18' W 123°01'0 0.0
2017-May-27 19:22N 49°18' W 123°01'0 0.0
2017-May-27 18:49N 49°18' W 123°01'0 0.0
2017-May-27 18:22N 49°18' W 123°01'0 0.0
2017-May-27 17:52N 49°18' W 123°01'0 0.0
2017-May-27 17:25N 49°18' W 123°01'0 0.0
2017-May-27 16:55N 49°18' W 123°01'0 0.0
2017-May-27 16:25N 49°18' W 123°01'0 0.0
2017-May-27 15:55N 49°18' W 123°01'0 0.0
2017-May-27 15:25N 49°18' W 123°01'0 0.0
2017-May-27 14:55N 49°18' W 123°01'0 0.0
2017-May-27 13:58N 49°18' W 123°01'0 0.0
2017-May-27 13:28N 49°18' W 123°01'0 0.0
2017-May-27 12:58N 49°18' W 123°01'0 0.0
2017-May-27 12:28N 49°18' W 123°01'0 0.0
2017-May-27 11:58N 49°18' W 123°01'0 0.0
2017-May-27 11:28N 49°18' W 123°01'0 0.0
2017-May-27 10:58N 49°18' W 123°01'0 0.0
2017-May-27 10:25N 49°18' W 123°01'0 0.0
2017-May-27 09:55N 49°18' W 123°01'0 0.0
2017-May-27 09:28N 49°18' W 123°01'0 0.0
2017-May-27 08:58N 49°18' W 123°01'0 0.0
2017-May-27 08:28N 49°18' W 123°01'0 0.0
2017-May-27 07:58N 49°18' W 123°01'0 0.0
2017-May-27 07:25N 49°18' W 123°01'0 0.0
2017-May-27 06:55N 49°18' W 123°01'0 0.0
2017-May-27 06:28N 49°18' W 123°01'0 0.0
2017-May-27 05:43N 49°18' W 123°01'0 0.0
2017-May-27 05:28N 49°18' W 123°01'0 0.0
2017-May-27 04:58N 49°18' W 123°01'0 0.0
2017-May-27 04:28N 49°18' W 123°01'0 0.0
2017-May-27 03:55N 49°18' W 123°01'0 0.0
2017-May-27 03:22N 49°18' W 123°01'0 0.0
2017-May-27 02:58N 49°18' W 123°01'0 0.0
2017-May-27 02:25N 49°18' W 123°01'0 0.0
2017-May-27 01:55N 49°18' W 123°01'0 0.0
2017-May-27 01:25N 49°18' W 123°01'0 0.0
2017-May-27 00:49N 49°18' W 123°01'0 0.0
2017-May-27 00:28N 49°18' W 123°01'0 0.0
2017-May-26 23:55N 49°18' W 123°01'0 0.0
2017-May-26 23:28N 49°18' W 123°01'0 0.0
2017-May-26 22:46N 49°18' W 123°01'0 0.0
2017-May-26 22:16N 49°18' W 123°01'0 0.0
2017-May-26 21:13N 49°18' W 123°01'0 0.0
2017-May-26 20:55N 49°18' W 123°01'0 0.0
2017-May-26 20:13N 49°18' W 123°01'0 0.0
2017-May-26 19:52N 49°18' W 123°01'0 0.0
2017-May-26 19:25N 49°18' W 123°01'0 0.0
2017-May-26 18:55N 49°18' W 123°01'0 0.0
2017-May-26 18:25N 49°18' W 123°01'0 0.0
2017-May-26 17:55N 49°18' W 123°01'0 0.0
2017-May-26 17:25N 49°18' W 123°01'0 0.0
2017-May-26 16:55N 49°18' W 123°01'0 0.0
2017-May-26 16:25N 49°18' W 123°01'0 0.0
2017-May-26 15:52N 49°18' W 123°01'0 0.0
2017-May-26 15:25N 49°18' W 123°01'0 0.1
2017-May-26 14:52N 49°18' W 123°01'0 1.1
2017-May-26 14:30N 49°18' W 123°02'3 3.2
2017-May-26 13:30N 49°18' W 123°06'2 4.1
2017-May-26 13:00N 49°19' W 123°09'2 4.3
2017-May-26 12:30N 49°18' W 123°12'2 4.1
2017-May-26 12:00N 49°18' W 123°15'2 3.8
2017-May-26 11:30N 49°16' W 123°17'2 5.0
2017-May-26 11:00N 49°14' W 123°18'3 5.1
2017-May-26 10:30N 49°11' W 123°19'2 4.9
2017-May-26 10:00N 49°09' W 123°19'2 4.9
2017-May-26 09:30N 49°06' W 123°19'2 5.0
2017-May-26 09:00N 49°07' W 123°15'3 5.5
2017-May-26 08:30N 49°07' W 123°11'3 6.2
2017-May-26 08:00N 49°07' W 123°07'3 6.1
2017-May-26 07:30N 49°09' W 123°03'3 6.5
2017-May-26 07:00N 49°09' W 122°58'3 6.1
2017-May-26 06:30N 49°12' W 122°55'2 3.0
2017-May-26 05:58N 49°13' W 122°53'0 0.7
2017-May-26 05:28N 49°12' W 122°53'0 0.0
2017-May-26 04:58N 49°12' W 122°53'0 0.0
2017-May-26 04:28N 49°12' W 122°53'0 0.0
2017-May-26 03:58N 49°12' W 122°53'0 0.0
2017-May-26 03:28N 49°12' W 122°53'0 0.0
2017-May-26 02:58N 49°12' W 122°53'0 0.0
2017-May-26 02:28N 49°12' W 122°53'0 0.0
2017-May-26 01:58N 49°12' W 122°53'0 0.0
2017-May-26 01:28N 49°12' W 122°53'0 0.0
2017-May-26 00:58N 49°12' W 122°53'0 0.0
2017-May-26 00:28N 49°12' W 122°53'0 0.0
2017-May-25 23:58N 49°12' W 122°53'0 0.0
2017-May-25 23:22N 49°12' W 122°53'0 0.0
2017-May-25 22:58N 49°12' W 122°53'0 0.0
2017-May-25 22:28N 49°12' W 122°53'0 0.0
2017-May-25 21:58N 49°12' W 122°53'0 0.0
2017-May-25 20:49N 49°12' W 122°53'0 0.0
2017-May-25 20:28N 49°12' W 122°53'0 0.0
2017-May-25 19:58N 49°12' W 122°53'0 0.0
2017-May-25 19:28N 49°12' W 122°53'0 0.0
2017-May-25 18:58N 49°12' W 122°53'0 0.0
2017-May-25 18:28N 49°12' W 122°53'0 0.0
2017-May-25 17:52N 49°12' W 122°53'0 0.0
2017-May-25 17:13N 49°12' W 122°53'0 0.1
2017-May-25 13:10N 49°13' W 122°53'0 0.0
2017-May-25 12:58N 49°13' W 122°53'  

Dump ship's entire track history